Time;durP1;ratioP1;P1;durP2;ratioP2;P2;SDS_P1;SDS_P2;PMS_P1;PMS_P2;Temp;Humidity;BMP_temperature;BMP_pressure;BME280_temperature;BME280_humidity;BME280_pressure;Samples;Min_cycle;Max_cycle;Signal;HPM_P1;HPM_P2
2022/08/06 00:02:55;;;;;;;2.35;0.80;;;;;;;12.84;100.00;101383.56;7701774;23;20143;-88
2022/08/06 00:05:56;;;;;;;1.55;0.85;;;;;;;12.80;100.00;101388.16;7701261;23;20083;-88
2022/08/06 00:09:00;;;;;;;0.80;0.80;;;;;;;12.78;100.00;101389.22;7674666;23;20052;-88
2022/08/06 00:12:06;;;;;;;2.30;0.90;;;;;;;12.71;100.00;101396.66;7698792;23;20024;-88
2022/08/06 00:15:12;;;;;;;1.05;0.80;;;;;;;12.66;100.00;101396.97;7674585;23;20056;-88
2022/08/06 00:18:15;;;;;;;2.55;1.08;;;;;;;12.64;100.00;101395.44;7700853;23;20023;-88
2022/08/06 00:21:19;;;;;;;1.75;0.80;;;;;;;12.60;100.00;101397.44;7701463;23;20443;-88
2022/08/06 00:24:41;;;;;;;1.13;1.00;;;;;;;12.58;100.00;101396.72;7701232;23;20017;-88
2022/08/06 00:27:43;;;;;;;1.80;0.90;;;;;;;12.56;100.00;101402.97;7701538;23;20509;-88
2022/08/06 00:30:53;;;;;;;1.53;0.93;;;;;;;12.52;100.00;101404.97;7702372;23;20518;-88
2022/08/06 00:34:05;;;;;;;1.35;0.70;;;;;;;12.45;100.00;101395.97;7702454;23;20017;-88
2022/08/06 00:37:08;;;;;;;1.60;0.77;;;;;;;12.39;100.00;101407.63;7702946;23;20027;-88
2022/08/06 00:40:21;;;;;;;1.42;0.90;;;;;;;12.39;100.00;101404.19;7702055;23;20024;-88
2022/08/06 00:43:26;;;;;;;1.08;0.82;;;;;;;12.40;100.00;101408.47;7702791;23;20021;-88
2022/08/06 00:46:42;;;;;;;1.83;0.85;;;;;;;12.38;100.00;101407.75;7703367;23;20709;-89
2022/08/06 00:49:45;;;;;;;3.05;1.52;;;;;;;12.40;100.00;101405.88;7704049;23;20356;-88
2022/08/06 00:52:50;;;;;;;3.33;1.00;;;;;;;12.37;100.00;101406.91;7702968;23;20525;-88
2022/08/06 00:55:52;;;;;;;1.17;0.90;;;;;;;12.35;100.00;101411.38;7677371;23;20615;-88
2022/08/06 00:59:03;;;;;;;3.63;1.00;;;;;;;12.35;100.00;101418.34;7703813;23;20027;-88
2022/08/06 01:02:06;;;;;;;1.45;1.00;;;;;;;12.30;100.00;101421.28;7703027;23;20020;-88
2022/08/06 01:05:11;;;;;;;0.82;0.82;;;;;;;12.25;100.00;101413.00;7672643;23;20035;-88
2022/08/06 01:08:32;;;;;;;0.98;0.90;;;;;;;12.24;100.00;101417.34;7677448;23;20101;-88
2022/08/06 01:11:42;;;;;;;1.73;1.00;;;;;;;12.17;100.00;101415.28;7699318;23;20423;-88
2022/08/06 01:14:44;;;;;;;1.20;1.10;;;;;;;12.13;100.00;101429.44;7699247;23;20043;-88
2022/08/06 01:18:17;;;;;;;2.67;1.00;;;;;;;12.09;100.00;101438.38;7699443;23;20021;-88
2022/08/06 01:21:44;;;;;;;2.72;1.10;;;;;;;12.05;100.00;101437.78;7701057;23;20398;-88
2022/08/06 01:25:44;;;;;;;1.60;1.10;;;;;;;12.02;100.00;101451.78;7702241;23;20104;-88
2022/08/06 01:29:35;;;;;;;0.90;0.90;;;;;;;12.01;100.00;101441.50;7699096;23;20027;-88
2022/08/06 01:32:58;;;;;;;1.20;1.10;;;;;;;12.02;100.00;101458.72;7701692;23;20024;-88
2022/08/06 01:36:09;;;;;;;1.42;0.93;;;;;;;11.96;100.00;101448.78;7701965;23;20020;-88
2022/08/06 01:39:15;;;;;;;3.22;1.02;;;;;;;11.96;100.00;101451.38;7701892;23;20020;-88
2022/08/06 01:42:39;;;;;;;1.00;0.88;;;;;;;11.95;100.00;101447.13;7702527;23;20020;-88
2022/08/06 01:45:46;;;;;;;2.55;1.17;;;;;;;11.94;100.00;101445.47;7701451;23;20017;-88
2022/08/06 01:48:57;;;;;;;2.13;1.10;;;;;;;11.86;100.00;101435.59;7699975;23;20479;-89
2022/08/06 01:52:11;;;;;;;2.55;1.10;;;;;;;11.85;100.00;101447.75;7698999;23;20023;-88
2022/08/06 01:55:19;;;;;;;1.00;1.00;;;;;;;11.86;100.00;101448.56;7700526;23;20349;-88
2022/08/06 01:58:27;;;;;;;2.50;1.10;;;;;;;11.87;100.00;101449.41;7650515;23;20021;-88
2022/08/06 02:01:34;;;;;;;2.22;0.95;;;;;;;11.87;100.00;101444.22;7701788;23;20024;-88
2022/08/06 02:05:00;;;;;;;4.57;1.15;;;;;;;11.87;100.00;101447.66;7702130;23;20148;-88
2022/08/06 02:08:15;;;;;;;2.10;1.50;;;;;;;11.86;100.00;101438.19;7702095;23;20020;-88
2022/08/06 02:11:41;;;;;;;2.67;1.08;;;;;;;11.82;100.00;101434.97;7654772;23;20032;-88
2022/08/06 02:15:28;;;;;;;1.20;1.00;;;;;;;11.80;100.00;101443.78;7694609;23;20103;-88
2022/08/06 02:18:52;;;;;;;2.67;1.00;;;;;;;11.83;100.00;101435.81;7551239;23;20578;-88
2022/08/06 02:21:59;;;;;;;1.45;0.88;;;;;;;11.77;100.00;101434.47;7549667;23;20026;-88
2022/08/06 02:25:05;;;;;;;1.70;1.30;;;;;;;11.78;100.00;101440.50;7526918;23;20036;-88
2022/08/06 02:28:31;;;;;;;2.05;1.40;;;;;;;11.77;100.00;101444.84;7505842;23;20034;-88
2022/08/06 02:31:34;;;;;;;1.30;1.20;;;;;;;11.79;100.00;101442.97;7551431;23;20053;-88
2022/08/06 02:34:51;;;;;;;2.08;0.90;;;;;;;11.75;100.00;101453.66;7551688;23;20509;-88
2022/08/06 02:38:02;;;;;;;2.40;1.00;;;;;;;11.66;100.00;101452.53;7551784;23;20114;-88
2022/08/06 02:41:43;;;;;;;1.05;0.90;;;;;;;11.55;100.00;101458.47;7550854;23;20113;-88
2022/08/06 02:45:21;;;;;;;1.15;1.02;;;;;;;11.51;100.00;101463.97;7550277;23;20026;-88
2022/08/06 02:48:38;;;;;;;3.42;1.00;;;;;;;11.45;100.00;101469.53;7549659;23;20042;-88
2022/08/06 02:52:00;;;;;;;2.15;1.13;;;;;;;11.36;100.00;101474.44;7550178;23;20039;-88
2022/08/06 02:55:27;;;;;;;2.58;1.38;;;;;;;11.33;100.00;101469.47;7631546;23;20102;-88
2022/08/06 02:58:39;;;;;;;1.30;1.20;;;;;;;11.37;100.00;101472.66;7703176;23;20027;-88
2022/08/06 03:02:06;;;;;;;2.70;1.40;;;;;;;11.37;100.00;101477.84;7703624;23;20567;-88
2022/08/06 03:05:18;;;;;;;1.38;1.27;;;;;;;11.36;100.00;101474.44;7703638;23;20020;-88
2022/08/06 03:08:41;;;;;;;2.83;1.50;;;;;;;11.28;100.00;101473.25;7704128;23;20017;-88
2022/08/06 03:11:46;;;;;;;2.90;1.48;;;;;;;11.29;100.00;101478.34;7677366;23;20024;-88
2022/08/06 03:14:50;;;;;;;2.72;1.55;;;;;;;11.34;100.00;101481.47;7704296;23;20020;-88
2022/08/06 03:18:15;;;;;;;1.30;1.20;;;;;;;11.31;100.00;101483.44;7704288;23;20021;-88
2022/08/06 03:21:25;;;;;;;2.28;1.27;;;;;;;11.27;100.00;101488.00;7704913;23;20024;-88
2022/08/06 03:24:36;;;;;;;;;;;;;;;11.31;100.00;101493.81;7704866;23;20035;-88
2022/08/06 03:27:39;;;;;;;1.80;1.30;;;;;;;11.32;100.00;101485.09;7703523;23;19919;-88
2022/08/06 03:30:45;;;;;;;2.20;1.35;;;;;;;11.31;100.00;101497.25;7705125;23;20178;-88
2022/08/06 03:33:48;;;;;;;2.72;1.30;;;;;;;11.28;100.00;101502.63;7704182;23;20060;-87
2022/08/06 03:36:56;;;;;;;2.20;1.40;;;;;;;11.31;100.00;101504.19;7704853;23;20107;-88
2022/08/06 03:40:03;;;;;;;1.58;1.48;;;;;;;11.25;100.00;101510.59;7704430;23;20478;-88
2022/08/06 03:43:05;;;;;;;2.65;1.60;;;;;;;11.23;100.00;101517.66;7702796;23;20339;-88
2022/08/06 03:46:09;;;;;;;2.05;1.30;;;;;;;11.26;100.00;101517.44;7703348;23;20021;-88
2022/08/06 03:49:40;;;;;;;1.60;1.50;;;;;;;11.27;100.00;101526.03;7702807;23;20451;-88
2022/08/06 03:52:48;;;;;;;3.45;1.70;;;;;;;11.25;100.00;101528.72;7703695;23;20035;-88
2022/08/06 03:55:54;;;;;;;2.30;1.40;;;;;;;11.24;100.00;101537.44;7703957;23;20020;-88
2022/08/06 03:59:02;;;;;;;3.70;1.52;;;;;;;11.26;100.00;101538.19;7702747;23;20024;-88
2022/08/06 04:02:06;;;;;;;7.55;1.92;;;;;;;11.30;100.00;101538.78;7676146;23;20103;-88
2022/08/06 04:05:27;;;;;;;;;;;;;;;11.28;100.00;101531.13;7703438;23;20017;-88
2022/08/06 04:08:32;;;;;;;3.67;1.52;;;;;;;11.33;100.00;101541.19;7702752;23;19926;-88
2022/08/06 04:11:36;;;;;;;2.85;1.60;;;;;;;11.33;100.00;101539.44;7703335;23;20026;-88
2022/08/06 04:14:58;;;;;;;1.60;1.50;;;;;;;11.34;100.00;101554.06;7703150;23;20523;-88
2022/08/06 04:18:09;;;;;;;1.73;1.30;;;;;;;11.45;100.00;101557.69;7704319;23;20024;-88
2022/08/06 04:21:18;;;;;;;1.55;1.40;;;;;;;11.48;100.00;101555.75;7704021;23;20032;-88
2022/08/06 04:24:40;;;;;;;3.38;1.63;;;;;;;11.53;100.00;101563.22;7682344;23;20029;-88
2022/08/06 04:27:46;;;;;;;2.83;1.70;;;;;;;11.56;100.00;101563.84;7704237;23;20346;-88
2022/08/06 04:30:57;;;;;;;4.45;1.65;;;;;;;11.57;100.00;101562.06;7703092;23;20021;-88
2022/08/06 04:34:00;;;;;;;1.88;1.77;;;;;;;11.62;100.00;101566.00;7703692;23;20035;-88
2022/08/06 04:37:02;;;;;;;1.80;1.42;;;;;;;11.66;100.00;101571.00;7676603;23;20028;-88
2022/08/06 04:40:08;;;;;;;1.38;1.20;;;;;;;11.66;100.00;101577.03;7704080;23;20442;-88
2022/08/06 04:43:16;;;;;;;2.35;1.50;;;;;;;11.69;100.00;101588.97;7703703;23;20021;-88
2022/08/06 04:46:20;;;;;;;2.47;1.60;;;;;;;11.77;100.00;101582.31;7703482;23;20020;-88
2022/08/06 04:49:22;;;;;;;2.00;1.40;;;;;;;11.78;100.00;101584.00;7704025;23;20084;-88
2022/08/06 04:52:44;;;;;;;1.40;1.30;;;;;;;11.83;100.00;101592.28;7704025;23;20024;-88
2022/08/06 04:55:50;;;;;;;1.85;1.30;;;;;;;11.87;100.00;101597.28;7703322;23;20024;-88
2022/08/06 04:59:05;;;;;;;1.35;1.25;;;;;;;11.90;100.00;101597.94;7703447;23;20020;-88
2022/08/06 05:02:08;;;;;;;2.83;1.30;;;;;;;11.96;100.00;101607.06;7676572;23;20020;-88
2022/08/06 05:05:16;;;;;;;1.33;1.17;;;;;;;12.00;100.00;101614.53;7703188;23;20029;-88
2022/08/06 05:08:23;;;;;;;2.13;1.40;;;;;;;12.03;100.00;101610.91;7703570;23;20027;-88
2022/08/06 05:11:31;;;;;;;1.30;1.13;;;;;;;12.09;100.00;101622.63;7702730;23;20024;-88
2022/08/06 05:15:10;;;;;;;3.08;1.70;;;;;;;12.07;100.00;101623.59;7703313;23;20025;-88
2022/08/06 05:18:25;;;;;;;2.47;1.80;;;;;;;12.08;100.00;101627.00;7551890;23;20034;-88
2022/08/06 05:21:48;;;;;;;3.10;1.45;;;;;;;12.13;100.00;101626.69;7508256;23;20030;-88
2022/08/06 05:25:10;;;;;;;1.58;1.48;;;;;;;12.17;100.00;101628.94;7551540;23;20037;-88
2022/08/06 05:28:24;;;;;;;1.95;1.55;;;;;;;12.21;100.00;101621.81;7530105;23;20489;-89
2022/08/06 05:31:37;;;;;;;1.50;1.38;;;;;;;12.29;100.00;101627.28;7551810;23;20026;-88
2022/08/06 05:34:41;;;;;;;1.55;1.45;;;;;;;12.33;100.00;101638.31;7551470;23;20129;-88
2022/08/06 05:37:52;;;;;;;3.80;1.73;;;;;;;12.34;100.00;101640.78;7551131;23;20030;-88
2022/08/06 05:41:08;;;;;;;2.80;1.50;;;;;;;12.34;100.00;101640.78;7526541;23;20033;-88
2022/08/06 05:44:10;;;;;;;2.40;1.50;;;;;;;12.45;100.00;101632.28;7550902;23;20054;-88
2022/08/06 05:47:15;;;;;;;1.63;1.45;;;;;;;12.43;100.00;101649.72;7551643;23;20222;-88
2022/08/06 05:50:20;;;;;;;3.90;1.50;;;;;;;12.50;100.00;101654.38;7551107;23;20070;-88
2022/08/06 05:53:33;;;;;;;2.30;1.40;;;;;;;12.53;100.00;101655.13;7555808;23;20036;-88
2022/08/06 05:57:12;;;;;;;3.20;1.83;;;;;;;12.58;100.00;101653.03;7702485;23;20027;-88
2022/08/06 06:00:20;;;;;;;3.83;1.70;;;;;;;12.65;100.00;101649.06;7702478;23;20021;-88
2022/08/06 06:03:44;;;;;;;2.55;1.45;;;;;;;12.69;100.00;101655.69;7674688;23;20159;-88
2022/08/06 06:06:51;;;;;;;3.88;1.88;;;;;;;12.73;100.00;101654.56;7701215;23;20024;-89
2022/08/06 06:09:56;;;;;;;2.92;2.00;;;;;;;12.87;100.00;101661.41;7700993;23;20067;-88
2022/08/06 06:13:07;;;;;;;3.75;1.70;;;;;;;12.89;100.00;101662.94;7700653;23;20028;-88
2022/08/06 06:16:46;;;;;;;2.22;1.70;;;;;;;12.95;100.00;101664.28;7703014;23;20096;-88
2022/08/06 06:19:59;;;;;;;2.05;1.48;;;;;;;13.18;100.00;101664.41;7702465;23;20469;-88
2022/08/06 06:23:29;;;;;;;5.07;1.90;;;;;;;13.25;100.00;101665.63;7703788;23;20020;-88
2022/08/06 06:26:54;;;;;;;1.77;1.67;;;;;;;13.25;100.00;101669.06;7702471;23;20020;-88
2022/08/06 06:30:10;;;;;;;2.15;1.75;;;;;;;13.28;100.00;101670.63;7702181;23;20020;-89
2022/08/06 06:33:59;;;;;;;2.08;1.73;;;;;;;13.32;100.00;101674.69;7676154;23;20024;-88
2022/08/06 06:37:15;;;;;;;2.08;1.60;;;;;;;13.42;100.00;101659.25;7702455;23;20515;-88
2022/08/06 06:40:39;;;;;;;2.67;1.70;;;;;;;13.40;100.00;101676.72;7701566;23;20103;-88
2022/08/06 06:44:23;;;;;;;2.42;1.83;;;;;;;13.45;100.00;101672.03;7674221;23;20347;-88
2022/08/06 06:48:04;;;;;;;1.63;1.52;;;;;;;13.49;100.00;101674.28;7701893;23;20028;-88
2022/08/06 06:51:16;;;;;;;4.40;2.00;;;;;;;13.53;100.00;101680.91;7677081;23;20044;-88
2022/08/06 06:54:48;;;;;;;4.20;1.42;;;;;;;13.55;100.00;101681.63;7701180;23;20455;-88
2022/08/06 06:58:10;;;;;;;2.50;1.50;;;;;;;13.71;100.00;101686.56;7701855;23;20056;-88
2022/08/06 07:01:15;;;;;;;2.97;1.60;;;;;;;13.71;100.00;101683.09;7702200;23;20566;-88
2022/08/06 07:04:31;;;;;;;1.58;1.48;;;;;;;13.81;100.00;101691.88;7702600;23;20047;-88
2022/08/06 07:07:42;;;;;;;3.20;1.30;;;;;;;13.99;100.00;101695.75;7677517;23;20021;-88
2022/08/06 07:10:52;;;;;;;4.47;1.10;;;;;;;14.07;100.00;101692.56;7677347;23;20017;-88
2022/08/06 07:13:59;;;;;;;2.78;1.40;;;;;;;14.05;100.00;101702.25;7701638;23;20087;-88
2022/08/06 07:17:03;;;;;;;1.52;1.20;;;;;;;14.05;100.00;101704.03;7704025;23;20013;-88
2022/08/06 07:20:29;;;;;;;2.88;1.50;;;;;;;14.15;100.00;101712.81;7701882;23;20348;-88
2022/08/06 07:23:32;;;;;;;2.50;1.02;;;;;;;14.24;100.00;101711.31;7675814;23;20020;-88
2022/08/06 07:26:55;;;;;;;4.95;1.55;;;;;;;14.26;100.00;101702.44;7702264;23;20159;-88
2022/08/06 07:29:58;;;;;;;3.40;1.23;;;;;;;14.33;100.00;101708.00;7702117;23;20020;-88
2022/08/06 07:33:02;;;;;;;3.85;1.00;;;;;;;14.41;100.00;101716.06;7676788;23;20024;-88
2022/08/06 07:36:05;;;;;;;3.40;1.10;;;;;;;14.56;100.00;101712.31;7702150;23;20418;-89
2022/08/06 07:39:20;;;;;;;2.88;1.20;;;;;;;14.59;100.00;101716.47;7703599;23;20031;-89
2022/08/06 07:42:24;;;;;;;1.05;0.93;;;;;;;14.69;100.00;101724.41;7702936;23;20016;-89
2022/08/06 07:45:33;;;;;;;2.17;0.85;;;;;;;14.69;100.00;101716.59;7705135;23;20116;-89
2022/08/06 07:49:03;;;;;;;1.25;0.50;;;;;;;14.72;100.00;101729.38;7682565;23;20020;-89
2022/08/06 07:52:16;;;;;;;3.05;0.80;;;;;;;14.94;100.00;101731.97;7704454;23;20151;-89
2022/08/06 07:55:21;;;;;;;1.10;0.73;;;;;;;14.88;100.00;101726.41;7676445;23;20023;-88
2022/08/06 07:58:23;;;;;;;1.95;0.80;;;;;;;15.00;100.00;101733.25;7702744;23;20684;-89
2022/08/06 08:01:32;;;;;;;2.33;0.50;;;;;;;15.25;98.48;101737.38;7677833;23;20094;-89
2022/08/06 08:08:02;;;;;;;0.85;0.75;;;;;;;15.28;98.80;101743.19;7702834;23;20032;-89
2022/08/06 08:11:13;;;;;;;1.52;0.90;;;;;;;15.40;100.00;101735.31;7702150;23;20017;-89
2022/08/06 08:14:23;;;;;;;3.25;0.75;;;;;;;15.81;98.71;101749.47;7702417;23;20190;-89
2022/08/06 08:17:27;;;;;;;1.73;0.90;;;;;;;16.02;96.72;101754.69;7701762;23;20017;-89
2022/08/06 08:20:39;;;;;;;2.25;0.63;;;;;;;16.17;88.89;101750.81;7701216;23;20444;-89
2022/08/06 08:23:52;;;;;;;1.73;0.52;;;;;;;16.08;90.54;101747.19;7702224;23;20486;-89
2022/08/06 08:26:56;;;;;;;2.55;0.60;;;;;;;16.00;92.43;101760.06;7700769;23;20017;-89
2022/08/06 08:30:18;;;;;;;1.10;0.85;;;;;;;16.14;92.54;101759.72;7702225;23;20131;-89
2022/08/06 08:33:20;;;;;;;1.63;0.75;;;;;;;16.46;92.12;101751.00;7697100;23;20359;-89
2022/08/06 08:36:23;;;;;;;0.93;0.60;;;;;;;16.73;87.02;101745.19;7673902;23;20024;-89
2022/08/06 08:39:31;;;;;;;1.90;0.60;;;;;;;16.99;83.44;101750.84;7701743;23;20044;-89
2022/08/06 08:42:45;;;;;;;1.55;0.50;;;;;;;17.15;81.77;101746.88;7699916;23;20013;-89
2022/08/06 08:45:53;;;;;;;3.67;2.00;;;;;;;17.21;82.08;101752.41;7699297;23;20043;-89
2022/08/06 08:49:00;;;;;;;1.42;0.47;;;;;;;17.31;80.47;101759.44;7673337;23;20359;-88
2022/08/06 08:52:04;;;;;;;2.05;0.70;;;;;;;17.12;81.90;101755.00;7698967;23;20016;-89
2022/08/06 08:55:16;;;;;;;1.27;0.70;;;;;;;17.17;80.61;101758.88;7696584;23;20095;-89
2022/08/06 08:58:44;;;;;;;1.30;0.70;;;;;;;17.42;80.16;101760.16;7699768;23;20075;-89
2022/08/06 09:02:11;;;;;;;1.67;0.50;;;;;;;17.78;77.96;101763.06;7702201;23;20028;-89
2022/08/06 09:05:15;;;;;;;0.75;0.40;;;;;;;17.69;73.81;101756.06;7697061;23;20036;-89
2022/08/06 09:08:17;;;;;;;1.45;0.45;;;;;;;17.36;73.35;101758.06;7698758;23;20029;-89
2022/08/06 09:11:39;;;;;;;0.50;0.40;;;;;;;17.11;72.78;101755.97;7672756;23;20052;-89
2022/08/06 09:15:02;;;;;;;0.45;0.40;;;;;;;16.99;77.29;101756.06;7696236;23;20027;-89
2022/08/06 09:18:05;;;;;;;0.32;0.32;;;;;;;17.23;77.46;101757.50;7696799;23;20024;-89
2022/08/06 09:21:13;;;;;;;2.97;0.70;;;;;;;17.37;76.07;101757.13;7697659;23;20027;-89
2022/08/06 09:24:22;;;;;;;1.33;0.70;;;;;;;17.68;75.20;101761.44;7697597;23;20426;-89
2022/08/06 09:27:32;;;;;;;1.63;0.82;;;;;;;18.05;72.16;101770.25;7697711;23;20436;-89
2022/08/06 09:30:58;;;;;;;0.70;0.40;;;;;;;18.10;71.98;101764.59;7696794;23;20020;-89
2022/08/06 09:34:04;;;;;;;1.20;0.47;;;;;;;18.03;72.89;101764.31;7671192;23;20435;-89
2022/08/06 09:37:28;;;;;;;1.30;0.57;;;;;;;17.85;71.42;101768.63;7697214;23;20122;-89
2022/08/06 09:41:04;;;;;;;1.33;0.50;;;;;;;17.79;71.92;101761.31;7698643;23;20557;-89
2022/08/06 09:44:10;;;;;;;1.38;0.47;;;;;;;17.80;72.28;101758.56;7698447;23;20035;-89
2022/08/06 09:47:32;;;;;;;0.85;0.40;;;;;;;17.98;72.13;101758.69;7697582;23;20516;-89
2022/08/06 09:50:38;;;;;;;1.30;0.50;;;;;;;18.31;68.56;101759.22;7697791;23;20047;-89
2022/08/06 09:53:55;;;;;;;2.47;0.40;;;;;;;18.39;66.16;101753.25;7697754;23;20054;-89
2022/08/06 09:57:17;;;;;;;0.70;0.40;;;;;;;18.37;64.86;101760.44;7697356;23;20226;-89
2022/08/06 10:00:26;;;;;;;0.35;0.30;;;;;;;18.17;63.21;101764.88;7696992;23;20226;-89
2022/08/06 10:03:38;;;;;;;1.02;0.45;;;;;;;18.11;66.62;101754.94;7697403;23;20017;-89
2022/08/06 10:07:01;;;;;;;1.17;0.57;;;;;;;18.42;67.93;101768.69;7697179;23;20023;-89
2022/08/06 10:10:09;;;;;;;2.45;0.50;;;;;;;18.52;62.92;101770.31;7697619;23;20372;-89
2022/08/06 10:13:19;;;;;;;5.95;0.80;;;;;;;18.70;64.60;101759.88;7668539;23;20743;-89
2022/08/06 10:16:26;;;;;;;1.20;0.47;;;;;;;19.06;63.50;101760.06;7670295;23;20040;-90
2022/08/06 10:19:30;;;;;;;1.00;0.30;;;;;;;19.23;62.03;101753.19;7697490;23;20021;-89
2022/08/06 10:22:50;;;;;;;0.85;0.40;;;;;;;18.79;61.98;101762.66;7698282;23;20024;-89
2022/08/06 10:25:52;;;;;;;1.00;0.47;;;;;;;18.52;62.05;101761.63;7670579;23;20025;-89
2022/08/06 10:29:00;;;;;;;1.20;0.40;;;;;;;18.64;61.73;101750.00;7697034;23;20355;-89
2022/08/06 10:32:02;;;;;;;1.38;0.57;;;;;;;18.98;59.38;101754.72;7671205;23;20024;-89
2022/08/06 10:35:16;;;;;;;1.05;0.40;;;;;;;19.32;56.01;101762.78;7699434;23;20024;-90
2022/08/06 10:38:26;;;;;;;3.10;0.70;;;;;;;19.76;57.33;101755.03;7699040;23;20017;-89
2022/08/06 10:41:38;;;;;;;2.70;0.40;;;;;;;19.94;56.27;101747.13;7697692;23;20533;-89
2022/08/06 10:45:01;;;;;;;1.05;0.50;;;;;;;19.96;56.58;101753.06;7699483;23;20017;-90
2022/08/06 10:48:15;;;;;;;0.40;0.40;;;;;;;19.70;55.22;101757.44;7675639;23;20031;-90
2022/08/06 10:51:38;;;;;;;0.65;0.45;;;;;;;19.56;54.61;101751.69;7698945;23;20024;-90
2022/08/06 10:54:59;;;;;;;1.00;0.40;;;;;;;19.68;51.50;101754.16;7702084;23;20321;-89
2022/08/06 10:58:02;;;;;;;0.98;0.40;;;;;;;19.94;54.43;101751.56;7700219;23;20490;-89
2022/08/06 11:01:37;;;;;;;8.98;0.70;;;;;;;20.30;51.94;101751.50;7700311;23;20424;-85
2022/08/06 11:04:55;;;;;;;0.63;0.50;;;;;;;20.44;52.08;101749.09;7550625;23;20038;-85
2022/08/06 11:08:17;;;;;;;0.50;0.32;;;;;;;20.13;53.41;101747.94;7548358;23;20038;-86
2022/08/06 11:12:11;;;;;;;1.15;0.50;;;;;;;19.67;53.24;101749.81;7547827;23;20037;-85
2022/08/06 11:15:19;;;;;;;1.73;0.50;;;;;;;19.28;54.17;101745.69;7550051;23;20517;-85
2022/08/06 11:18:24;;;;;;;0.98;0.35;;;;;;;19.48;50.74;101733.25;7550629;23;20027;-85
2022/08/06 11:21:55;;;;;;;1.50;0.60;;;;;;;20.09;50.38;101736.06;7551187;23;20489;-85
2022/08/06 11:25:06;;;;;;;1.10;0.43;;;;;;;19.98;50.24;101743.22;7551835;23;20029;-84
2022/08/06 11:28:33;;;;;;;0.50;0.50;;;;;;;19.67;50.19;101742.78;7526448;23;20202;-86
2022/08/06 11:31:41;;;;;;;2.00;0.47;;;;;;;19.67;50.57;101744.56;7551669;23;20220;-86
2022/08/06 11:34:57;;;;;;;1.13;0.40;;;;;;;19.67;50.32;101739.31;7531363;23;20681;-85
2022/08/06 11:38:07;;;;;;;0.60;0.40;;;;;;;19.93;50.81;101736.78;7550310;23;20568;-85
2022/08/06 11:41:29;;;;;;;0.35;0.35;;;;;;;20.62;50.67;101729.81;7656989;23;20087;-85
2022/08/06 11:45:01;;;;;;;0.52;0.50;;;;;;;21.40;47.96;101729.59;7673898;23;20116;-85
2022/08/06 11:48:09;;;;;;;0.52;0.40;;;;;;;21.84;45.14;101728.47;7675217;23;20021;-85
2022/08/06 11:51:46;;;;;;;1.50;0.50;;;;;;;22.19;43.97;101729.06;7674879;23;20047;-84
2022/08/06 11:55:12;;;;;;;0.43;0.30;;;;;;;22.39;43.14;101726.91;7700859;23;20020;-85
2022/08/06 11:58:25;;;;;;;0.95;0.43;;;;;;;22.29;43.68;101727.09;7700081;23;20079;-86
2022/08/06 12:01:46;;;;;;;0.77;0.40;;;;;;;21.99;44.15;101728.59;7676053;23;20017;-84
2022/08/06 12:04:49;;;;;;;1.38;0.50;;;;;;;21.81;45.67;101726.94;7701960;23;20017;-84
2022/08/06 12:08:21;;;;;;;1.33;0.30;;;;;;;22.09;44.15;101735.34;7703336;23;20020;-86
2022/08/06 12:11:43;;;;;;;2.00;0.50;;;;;;;22.54;44.14;101733.13;7702289;23;20031;-85
2022/08/06 12:14:47;;;;;;;0.40;0.40;;;;;;;22.31;42.80;101733.00;7675743;23;20025;-85
2022/08/06 12:17:58;;;;;;;1.08;0.40;;;;;;;22.49;44.24;101730.16;7702749;23;20045;-84
2022/08/06 12:21:21;;;;;;;1.15;0.50;;;;;;;22.51;43.18;101725.53;7700637;23;20339;-85
2022/08/06 12:24:27;;;;;;;0.70;0.30;;;;;;;22.47;42.96;101729.50;7674254;23;20166;-85
2022/08/06 12:27:49;;;;;;;1.63;0.57;;;;;;;22.72;43.20;101723.13;7702319;23;20048;-85
2022/08/06 12:30:55;;;;;;;0.63;0.40;;;;;;;23.15;42.27;101722.75;7702258;23;20446;-85
2022/08/06 12:33:57;;;;;;;0.30;0.30;;;;;;;23.17;40.39;101721.59;7701002;23;20028;-85
2022/08/06 12:36:59;;;;;;;1.58;0.40;;;;;;;23.25;42.33;101714.63;7699604;23;20024;-87
2022/08/06 12:43:29;;;;;;;1.17;0.30;;;;;;;23.72;41.27;101719.69;7702956;23;20044;-84
2022/08/06 12:46:51;;;;;;;1.55;0.40;;;;;;;23.80;38.82;101711.75;7701450;23;20024;-85
2022/08/06 12:49:55;;;;;;;1.13;0.30;;;;;;;24.05;37.83;101707.03;7701610;23;20064;-85
2022/08/06 12:53:12;;;;;;;0.35;0.35;;;;;;;24.44;35.72;101715.69;7672794;23;20021;-85
2022/08/06 12:56:16;;;;;;;0.30;0.30;;;;;;;24.37;34.55;101710.31;7699176;23;20035;-85
2022/08/06 12:59:33;;;;;;;0.38;0.20;;;;;;;24.21;36.99;101705.22;7699334;23;20490;-85
2022/08/06 13:02:48;;;;;;;0.65;0.30;;;;;;;24.91;37.16;101707.31;7700762;23;20025;-85
2022/08/06 13:05:52;;;;;;;0.40;0.40;;;;;;;25.26;36.10;101706.69;7700618;23;20047;-85
2022/08/06 13:09:00;;;;;;;0.35;0.20;;;;;;;25.65;35.80;101708.06;7701188;23;20020;-85
2022/08/06 13:12:17;;;;;;;1.40;0.38;;;;;;;25.63;35.45;101700.28;7699449;23;20102;-85
2022/08/06 13:15:32;;;;;;;0.82;0.32;;;;;;;24.95;36.02;101707.78;7697749;23;20434;-85
2022/08/06 13:19:16;;;;;;;0.95;0.28;;;;;;;24.10;38.70;101701.19;7698540;23;20023;-85
2022/08/06 13:22:21;;;;;;;3.13;0.50;;;;;;;23.79;37.38;101706.63;7695341;23;20776;-85
2022/08/06 13:25:24;;;;;;;3.50;0.40;;;;;;;23.53;38.09;101709.63;7700291;23;20016;-85
2022/08/06 13:29:10;;;;;;;1.58;0.30;;;;;;;23.49;40.03;101709.16;7700498;23;20012;-84
2022/08/06 13:32:32;;;;;;;0.68;0.30;;;;;;;23.39;39.06;101703.28;7698644;23;20088;-84
2022/08/06 13:35:37;;;;;;;0.70;0.30;;;;;;;23.08;40.26;101698.03;7700199;23;20434;-84
2022/08/06 13:38:40;;;;;;;1.05;0.32;;;;;;;22.66;39.82;101705.34;7700364;23;20370;-83
2022/08/06 13:41:43;;;;;;;0.30;0.30;;;;;;;22.09;41.87;101692.31;7674878;23;20048;-84
2022/08/06 13:44:58;;;;;;;0.40;0.40;;;;;;;21.88;40.79;101700.75;7700801;23;20091;-83
2022/08/06 13:48:06;;;;;;;0.50;0.30;;;;;;;21.49;42.33;101702.25;7701349;23;20066;-83
2022/08/06 13:51:23;;;;;;;1.30;0.38;;;;;;;21.21;44.17;101696.41;7700739;23;20020;-84
2022/08/06 13:54:29;;;;;;;0.55;0.40;;;;;;;21.78;41.94;101690.38;7700023;23;20021;-84
2022/08/06 13:57:38;;;;;;;0.85;0.38;;;;;;;22.28;42.79;101691.13;7673945;23;20017;-85
2022/08/06 14:00:46;;;;;;;1.33;0.40;;;;;;;23.04;41.29;101688.84;7700038;23;20028;-86
2022/08/06 14:03:49;;;;;;;0.30;0.30;;;;;;;23.62;42.53;101682.13;7700417;23;20017;-86
2022/08/06 14:06:54;;;;;;;1.13;0.43;;;;;;;23.84;39.27;101683.91;7673720;23;20020;-86
2022/08/06 14:10:01;;;;;;;0.73;0.32;;;;;;;24.26;39.07;101687.78;7700117;23;20425;-86
2022/08/06 14:13:19;;;;;;;2.53;0.22;;;;;;;24.68;36.54;101673.06;7701320;23;20019;-86
2022/08/06 14:16:21;;;;;;;0.57;0.25;;;;;;;25.21;34.37;101679.94;7700084;23;20163;-87
2022/08/06 14:19:27;;;;;;;2.65;0.82;;;;;;;25.46;34.29;101672.41;7697677;23;20035;-86
2022/08/06 14:22:49;;;;;;;0.40;0.40;;;;;;;25.83;34.11;101675.75;7676698;23;20103;-86
2022/08/06 14:25:51;;;;;;;0.50;0.30;;;;;;;25.97;35.67;101677.50;7671426;23;20016;-86
2022/08/06 14:29:04;;;;;;;1.00;0.40;;;;;;;26.35;36.04;101672.56;7696951;23;20095;-90
2022/08/06 14:32:27;;;;;;;0.68;0.60;;;;;;;26.80;32.47;101680.94;7669191;23;20031;-87
2022/08/06 14:35:30;;;;;;;0.40;0.40;;;;;;;26.27;33.09;101680.72;7696078;23;20197;-90
2022/08/06 14:38:40;;;;;;;1.25;1.00;;;;;;;25.69;34.29;101680.13;7699375;23;20036;-90
2022/08/06 14:45:06;;;;;;;0.40;0.38;;;;;;;25.92;33.71;101674.63;7699196;23;20091;-90
2022/08/06 14:48:08;;;;;;;0.73;0.30;;;;;;;25.72;35.20;101669.16;7697684;23;20024;-90
2022/08/06 14:51:10;;;;;;;0.38;0.38;;;;;;;25.30;34.97;101662.91;7699793;23;20438;-89
2022/08/06 14:54:15;;;;;;;0.40;0.40;;;;;;;24.97;35.27;101665.19;7702053;23;20749;-89
2022/08/06 14:57:17;;;;;;;4.00;0.73;;;;;;;24.66;36.10;101671.59;7702016;23;20016;-89
2022/08/06 15:00:31;;;;;;;0.50;0.30;;;;;;;24.39;37.01;101668.59;7701116;23;20020;-89
2022/08/06 15:03:38;;;;;;;1.05;0.50;;;;;;;24.22;38.95;101668.00;7701898;23;20031;-87
2022/08/06 15:06:44;;;;;;;2.25;0.40;;;;;;;24.15;37.42;101671.53;7701390;23;20017;-88